Race Results for
Dinuba Criterium
Dinuba, CA
(Event Information)
View By:
Criterium on 02/15/2010

Note: Ranking points are NOT upgrade points. An explanation of ranking points can be found here.


Men - Pro/Cat 1/2

 Place Points NameCity, StateTime USAC #BibTeam
1204.14Evan Huffman   El Dorado Hills, CA00:00.0 256955  508 Yahoo! Cycling Team
2214.32Brian Bosch   Fresno, CA00:00.0 40703  516 Yahoo! Cycling Team
3224.50Adam Switters   Citrus Heights, CA00:00.0 127093  510 Yahoo Cycling Team
4234.68Philip Mooney (1 - Cat1)   San Rafael , CA00:00.0 206962  504 Yahoo! Cycling Team
5244.86Vincent Owens   Fresno, CA00:00.0 242560  512 Yahoo! Cycling Team
6255.04Kevin Klein   Menlo Park, CA00:00.0 47388  502 Yahoo! Cycling Team
7265.22Ryan Parnes (2 - Cat1)   Stockton, CA00:00.0 220414  513 Yahoo! Cycling Team
8275.40Shaun Bagley   Visalia, CA00:00.0 60730  515 Sierra Pacific Racing
9285.58Michael Jasinski   Rocklin, CA00:00.0 269476  521 Chico Corsa Cycling Club
10295.76John Bennett   El Cerrito, CA00:00.0 237917  501 Whole Athlete
11305.94jordan haggard   Los Angeles, CA00:00.0 251530  523 DNA
12316.12Alexander Blease   Chico, CA00:00.0 195515  506 Chico Corsa
13326.30Carmi Schulman   Seattle, WA00:00.0 200292  518 Squadra Ovest
14336.48Michael Camarena   Lindsay, CA00:00.0 47386  525 Yokohl Ranch/Sierra Bicycle We
15346.66Tyler Dibble   Oakland, CA00:00.0 205861  507 Yahoo! Cycling Team
16356.84Jeremy Dixon   Lompoc00:00.0 61773  500 Herbalife-LaGrange
17367.02Danny Rondon   Tulare , CA00:00.0 30514  522 Sierra Pacific Racing
18377.20Filip Vanacht (3 - Cat1)   Los Altos, CA00:00.0 245198  511 Yahoo! Cycling Team
19387.38John Wilk   Oakland, CA00:00.0 199951  519 Yahoo! Cycling Team
20397.56Patrick Briggs   Oakland, CA00:00.0 4838  517 Yahoo! Cycling Team
21407.74Michael Cordova   Chester, CA00:00.0 207547  520 Chico Corsa
DNPKeith DeFiebre   Prunedale, CA00:00.0 9046  524 NorCal Elite Cycling

Men - Cat 1/2/3 - Master - 35-99

 Place Points NameCity, StateTime USAC #BibTeam
1295.37Stephen Gregorios   Long Beach, CA00:00.0 135047  321 Radsport Cycling Team
2306.38Keith DeFiebre   Prunedale, CA00:00.0 9046  342 California Giant Cycling
3317.39Dennis King   Arroyo Grande, CA00:00.0 51230  328 Central Coast Tire CCT
4328.40Jeremiah Holdway   Sparks, NV00:00.0 55281  336 Taleo Racing
5339.41Jeremy Dixon   Lompoc00:00.0 61773  341 Herbalife-LaGrange
6350.42Aaron Hunter   Santa Cruz, CA00:00.0 215194  320 Kinetic Cycles/GBI
7361.43Roger Hogan   Fresno, CA00:00.0 285192  340 California Giant Cycling
8372.44Andrew Robertson   Fresno, CA00:00.0 169555  346 Rubber Soul/CSC Racing Team
9383.45Bill Ossofsky   Mammoth Lakes, CA00:00.0 26888  333 ARVO HEAD CYCLES
10394.46Danny Rondon   Tulare , CA00:00.0 30514  330 Sierra Pacific Racing
11405.47Chris Ott   San Jose, CA00:00.0 26920  327 Zenn Racing Team
12416.48Jason Kent   Walnut Creek, CA00:00.0 41826  344 Tieni Duro Junior Cycling Team
13427.49Tim Butler   Clovis, CA00:00.0 239746  324 Sierra Pacific Racing
14438.50Dan Sovereign   Sacramento, CA00:00.0 106455  345 
15449.51Edward Lund   Fresno, CA00:00.0 276566  331 Central Valley Cycling
16460.52John Devere   Madera, CA00:00.0 297594  335 Sierra Pacific Racing
17471.53Peter Lanik   Ashburn, VA00:00.0 226531  325 Sierra Pacific Racing
18482.54Scott Fonseca   Fair Oaks, CA00:00.0 204715  329 Zenn Racing Team
19493.55Jonathan Eropkin   Fresno, CA00:00.0 197844  323 SAFEWAY/Bicycles Plus/PureRed
20504.56John Cheetham   Pleasanton, CA00:00.0 202515  332 Metromint Cycling
21515.57Warren Atkey   Bothell, WA00:00.0 50756  339 Union Bay Cycling/Bikesale.com
DNSShaun Bagley   Visalia, CA00:00.0 60730  343 Sierra Pacific Racing
DNPCurtis Eastin   Clovis, CA00:00.0 40657  319 Sierra Pacific Racing
DNPGary Wall   Long Beach, CA00:00.0 188986  322 Radsport Cycling Team
DNPJeff Poulsen   Arnold, CA00:00.0 28533  326 SAFEWAY/Bicycles Plus/PureRed
DNPRonnie Kier   Fresno, CA00:00.0 168115  337 Vapor Racing
DNPRobert Napieralski   Springville, CA00:00.0 271499  347 Yokohl Ranch/Sierra Bicycle We
DNPJeff Poulsen   Arnold, CA00:00.0 28533  348 SAFEWAY/Bicycles Plus/PureRed
DNPJeff Poulsen   Arnold, CA00:00.0 28533  349 SAFEWAY/Bicycles Plus/PureRed

Men - Cat 3

 Place Points NameCity, StateTime USAC #BibTeam
1362.04Joe Galloway   Exeter, CA00:00.0 242644  672 Sierra Pacific Racing
2372.37Mark Fairman   San Francisco, CA00:00.0 270120  685 Metromint Cycling
3382.70Daniel Katz   Goleta, CA00:00.0 227135  684 NOW-MS Society
4393.03Stone Beck   Fresno, CA00:00.0 219237  679 Stevens Bicycle Racing
5403.36Adam Hodes   San Francisco, CA00:00.0 219706  671 Tieni Duro
6Nole STUDLEY   00:00.0  686 
7424.02Sydney Newsom   Fresno, CA00:00.0 258955  664 Sierra Pacific Racing
8434.35George Meilahn   Antioch, CA00:00.0 166581  665 Christian Cycling-Hammer Nutri
9444.68Peter Lanik   Ashburn, VA00:00.0 226531  676 Sierra Pacific Racing
10455.01Aaron Hunter   Santa Cruz, CA00:00.0 215194  677 Kinetic Cycles/GBI
11465.34Andrew Robertson   Fresno, CA00:00.0 169555  663 Rubber Soul/CSC Racing Team
12475.67Karl Wurzbach   Fairfield, CA00:00.0 260329  668 Davis Bike Club
13486.00John Cheetham   Pleasanton, CA00:00.0 202515  674 Metromint Cycling
14496.33Lutz Braun   Clovis, CA00:00.0 258096  683 Central Valley Cycling
15506.66Matthew Talbott   San Jose, CA00:00.0 255075  662 Clean Racer
DNPTyler Hanson   Orinda, CA00:00.0 257206  661 Tieni Duro
DNPSteven Grusis   Madera, CA00:00.0 60756  666 Rubber Soul/CSC Racing Team
DNPRobert Napieralski   Springville, CA00:00.0 271499  667 Yokohl Ranch/Sierra Bicycle We
DNPSteve Weixel   Santa Barbara, CA00:00.0 242153  669 Platinum Performance
DNPJason Kent   Walnut Creek, CA00:00.0 41826  670 Tieni Duro Junior Cycling Team
DNPEdward Lund   Fresno, CA00:00.0 276566  675 Central Valley Cycling
DNPMaurice Monge   San Jose, CA00:00.0 257119  678 SJBC
DNPBrandon HOWARD   00:00.0  680 
DNPMatt Britter   Fresno, CA00:00.0 195228  681 Sierra Pacific Racing
DNPMatthew Dearing   Fresno, CA00:00.0 8970  682 Central Valley Cycling
DNPKalani Hines   San Francisco, CA00:00.0 219316  687 Metromint Cycling
DNFRoger Hogan   Fresno, CA00:00.0 285192  673 California Giant Cycling

Men - Cat 4/5

 Place Points NameCity, StateTime USAC #BibTeam
1432.16Griffin Stone   Clovis, CA00:00.0 234161  986 Stevens Bicycle Racing
2435.20Brendan Dwyer (1 - Cat4)   San Luis Obispo, CA00:00.0 269978  968 SLO Nexus
3438.24Matt Paliughi   Fresno, CA00:00.0 300085  933 Sierra Pacific Racing
4441.28Joshua Houssiere   Fresno, CA00:00.0 66056  958 Stevens Bicycle Racing
5444.32Andrew Young (2 - Cat4)   Fresno, CA00:00.0 287119  964 Vapor
6447.36Alexander Gee   Danville, CA00:00.0 219922  962 Tieni Duro Jr. Cycling
7450.40J Lemons   Hanford, CA00:00.0 274625  932 Rubber Soul/CSC Racing Team
8453.44Sunny Sandhu   Fresno, CA00:00.0 271787  928 Central Valley Cycling
9456.48Ben Earl   San Luis Obispo, CA00:00.0 273452  961 SLO Nexus - Gym One
10459.52Jason Oxford   Fresno, CA00:00.0 277338  991 Vapor Racing - vaporracing.com
11462.56Erik Camacho   San Jose, CA00:00.0 303224  978 Team Fremont/FFBC powered by C
12465.60Darren Chamberlain   Salinas, CA00:00.0 204682  960 Taleo Racing
13468.64James Phillips (3 - Cat4)   Santa Cruz, CA00:00.0 220094  975 Touchstone
14471.68Jacob Dodge   Dinuba, CA00:00.0 287011  925 Unattached
15474.72Matthew Spaulding (4 - Cat4)   Sacramento, CA00:00.0 279472  999 TEAM CITY
16477.76Daniel Felix   Fresno, CA00:00.0 255819  930 
17480.80James Tower (5 - Cat4)   Davis, CA00:00.0 286847  957 UC Davis - Cal Aggie Cyclists
18483.84William Myers   Carmichael, CA00:00.0 306325  929 Unattached
19486.88Rob Robinson   Castro Valley, CA00:00.0 271386  981 Taleo Racing
20489.92Mitch Boehs   Livingston, CA00:00.0 237309  970 Fun Sport Bikes Cycling Team
21492.96Daniel Cuneo (6 - Cat4)   Davis, CA00:00.0 287715  992 Davis Bike Club
22496.00Stephen Wassather (7 - Cat4)   Santa Cruz, CA00:00.0 269058  947 Rio Strada Racing
23499.04David Doll   Merced, CA00:00.0 281768  946 Stanislaus/Merlock Velo
24502.08Jeremy Tuttle   Clovis, CA00:00.0 303019  948 Central Valley Cycling
25505.12Ricardo Contreras   Panorama City, CA00:00.0 272584  954 UC Santa Cruz
26508.16Justin Morgan   Fresno, CA00:00.0 238135  971 FresnOakland
27511.20Jeff Gledhill   Clovis, CA00:00.0 282233  931 Rubber Soul/CSC Racing Team
28514.24Rick Berry   Kingsburg, CA00:00.0 271131  974 Rubber Soul/CSC Racing Team
29517.28Joseph Buongiorno   Ladera Ranch, CA00:00.0 270004  997 
30520.32Trevor Larsen   Moraga, CA00:00.0 256917  966 Tieni Duro
31523.36Aaron Rindy   Reno, NV00:00.0 303731  972 
32526.40Leland Jones   Fresno, CA00:00.0 107204  934 Vapor Racing
33529.44christopher pimentel   Clovis, CA00:00.0 304879  982 
34532.48Amos Fishbein   Pismo Beach, CA00:00.0 300035  994 Central Coast Tire
35535.52Scott Hellam   Fresno, CA00:00.0 287510  977 Rubber Soul/CSC
36538.56Chaz Turmon   Sanger00:00.0 291490  987 Rubber Soul/CSC Racing Team
37541.60Karl Schafer   Visalia, CA00:00.0 288298  979 AIAGE Cycling Team
38544.64Michael McGuire   Benicia, CA00:00.0 277047  976 Taleo Racing
39547.68Reese Levine   Orinda, CA00:00.0 263998  973 Tieni Duro
40550.72Phil Alne   San Jose, CA00:00.0 236191  963 SJBC
41553.76Ian Hoffman   Fresno, CA00:00.0 271128  926 cvc
42556.80Paul Yun   San Luis Obispo, CA00:00.0 288635  995 SLO Nexus-Gymone
43559.84Darron Sturgeon   Reno, NV00:00.0 286787  967 Reno Wheelmen
44562.88Neema Assemi   Fresno, CA00:00.0 306675  996 Sierra Pacific Racing
45565.92Ellis Anderson   Moraga, CA00:00.0 274504  980 Tieni Duro Junior Cycling Team
46568.96Adam Lucero   Santa Cruz, CA00:00.0 257679  988 UC Santa Cruz Cycling
47572.00Marc Gomes   Monterey, CA00:00.0 55241  927 Unattached
48575.04Daniel Hertel   Arroyo Grande, CA00:00.0 300030  965 Central Coast Tire CCT
49578.08Joshua Kessler   San Luis Obispo, CA00:00.0 304814  983 SLO Nexus - Gym One
50581.12Matthew Esselstrom   Modesto, CA00:00.0 277510  949 Fun Sport Bikes Cycling Team
51584.16Rockie Stevens   Clovis, CA00:00.0 286795  935 Vapor Racing
52587.20Jeff Becker (1 - Cat5)   Fresno, CA00:00.0 305708  998 
53Matt MCKINZIE   00:00.0  952 
DNSChris Dufour   Pleasanton, CA00:00.0 302616  956 Taleo Racing
DNSHenry Nelson   Oakland, CA00:00.0 289117  985 Tieni Duro
DNSRobert Smith   Gold River , CA00:00.0 299828  990 Rio Strada Racing
DNPPatrick Doles   Kingsburg, CA00:00.0 303028  936 Sierra Pacific Racing
DNPDylan Drummond   Walnut Creek, CA00:00.0 265912  953 Tieni Duro
DNPVictor Mirzayan   Fresno, CA00:00.0 262853  984 sierra pacific racing
DNPMark Statema   Spokane, WA00:00.0 303646  993 
DNFJohn Echeveste   Goleta, CA00:00.0 268389  969 Echelon Santa Barbara
DNFRyan Ashford (Cat4)   Santa Rosa, CA00:00.0 304270  989 Team Touch

Men - Cat 4/5 - Master - 35-99

 Place Points NameCity, StateTime USAC #BibTeam
1464.10Ron Hansen   Lafayette, CA00:00.0 298332  879 Wells Fargo Racing
2467.60Mike Slayden   Clovis, CA00:00.0 297468  885 Vapor Racing
3471.10Jason Oxford   Fresno, CA00:00.0 277338  890 Vapor Racing - vaporracing.com
4474.60Wyatt Garcia   Atwater, CA00:00.0 287655  878 Stanislaus Merlock/Velo
5478.10Charlie Castro   San Francisco, CA00:00.0 226231  844 Dolce Vita Cycling
6481.60Mike Ashton   Oakland, CA00:00.0 302651  887 Dolce Vita Cycling
7485.10Erik Camacho   San Jose, CA00:00.0 303224  877 Team Fremont/FFBC powered by C
8488.60Rob Robinson   Castro Valley, CA00:00.0 271386  876 Taleo Racing
9492.10Chris Latsch   Oakland, CA00:00.0 303903  884 Metromint
10495.60Scott Winzeler   Franklin, TN00:00.0 269290  892 Liquid Fitness Reno Racing
11499.10stephen starr   Rohnert Park, CA00:00.0 305188  832 2wheelracing
12502.60Justin Morgan   Fresno, CA00:00.0 238135  895 FresnOakland
13506.10Marc Gomes   Monterey, CA00:00.0 55241  833 Unattached
14509.60Jeff Sands   Fresno, CA00:00.0 333426  837 
15513.10Ryan Nickelson   Danville, CA00:00.0 227002  845 Wells Fargo Racing Team
16516.60daniel barrows (1 - Cat5)   Fresno, CA00:00.0 257598  883 
17520.10Paul Purviance (2 - Cat5)   Clovis, CA00:00.0 260022  889 sierra pacific racing
18523.60Victor Mirzayan   Fresno, CA00:00.0 262853  886 sierra pacific racing
19527.10Mark Nichols   Alamo, CA00:00.0 83106  880 Wells Fargo Racing Team
20530.60Scott Hellam   Fresno, CA00:00.0 287510  875 Rubber Soul/CSC
21534.10Rick Berry   Kingsburg, CA00:00.0 271131  899 Rubber Soul/CSC Racing Team
22537.60Steven Decker   Fresno, CA00:00.0 274418  893 Rubber Soul/CSC Racing
23541.10Tom Cesar   Fresno, CA00:00.0 304936  838 Vapor Racing
24544.60Leland Jones   Fresno, CA00:00.0 107204  839 Vapor Racing
25548.10William (Judd) Kincaid (3 - Cat5)   San Martin, CA00:00.0 265517  872 NA
26551.60Allen Jackson   Sonora, CA00:00.0 260263  843 Wells Fargo Racing Team
27555.10Phil Alne   San Jose, CA00:00.0 236191  888 SJBC
28558.60Jack Arney   Lincoln, CA00:00.0 301427  842 Folsom Bike
29562.10Tom McElroy   Truckee, CA00:00.0 296294  897 
30565.60Rockie Stevens   Clovis, CA00:00.0 286795  840 Vapor Racing
31569.10Paul Wren   Montecito, CA00:00.0 109074  882 Team Chicken Ranch
32572.60Robert Woodward   Madera, CA00:00.0 303875  891 Central Valley Cycling
33576.10Keith Reed   Pleasanton, CA00:00.0 304119  873 Tri Valley Velo
34Chris KYEWER   00:00.0  836 
35583.10Daniel Felix   Fresno, CA00:00.0 255819  835 
36586.60Max Orendorff (4 - Cat5)   Fresno, CA00:00.0 258994  841 Vapor Racing
37590.10Igor Bulatov   Fresno, CA00:00.0 304326  896 Rubber Soul/CSC
DNSScott Daniel   Visalia, CA00:00.0 207139  874 Simply Fit/Action Sports
DNSChris Parod   Mather, CA00:00.0 270992  898 Team Bicycles Plus/Sierra Neva
DNPJeff Gledhill   Clovis, CA00:00.0 282233  834 Rubber Soul/CSC Racing Team
DNPMatthew Esselstrom   Modesto, CA00:00.0 277510  871 Fun Sport Bikes Cycling Team
DNPJody Cummings   Fresno, CA00:00.0 298802  881 Rubber Soul / CSC Racing
DNPMitch Boehs   Livingston, CA00:00.0 237309  894 Fun Sport Bikes Cycling Team

Men - Junior - 13-15

 Place Points NameCity, StateTime USAC #BibTeam
1465.42Katrina Howard   Fresno, CA00:00.0 231847  693 Vapor Racing
2527.71Page Robertson   Oakland, CA00:00.0 291028  692 Tieni Duro
3590.00Ramona Sovereign   Sacramento, CA00:00.0 286346  694 

Men - Junior - 16-18

 Place Points NameCity, StateTime USAC #BibTeam
1380.45Alexander Gee   Danville, CA00:00.0 219922  604 Tieni Duro Jr. Cycling
2398.20Tyler Hanson   Orinda, CA00:00.0 257206  600 Tieni Duro
3415.95Adam Hodes   San Francisco, CA00:00.0 219706  609 Tieni Duro
4433.70Daniel Hertel   Arroyo Grande, CA00:00.0 300030  601 Central Coast Tire CCT
5451.45Trevor Larsen   Moraga, CA00:00.0 256917  605 Tieni Duro
6469.20Nash Keanu Jacquez   Long Beach, CA00:00.0 288180  612 SSC
7486.95Jacob Dodge   Dinuba, CA00:00.0 287011  614 CSC
8504.70Amos Fishbein   Pismo Beach, CA00:00.0 300035  607 Central Coast Tire
9522.45Jordan McElroy   Truckee, CA00:00.0 296295  611 
10540.20Griffin Stone   Clovis, CA00:00.0 234161  603 Stevens Bicycle Racing
11557.95Reese Levine   Orinda, CA00:00.0 263998  610 Tieni Duro
12575.70Ellis Anderson   Moraga, CA00:00.0 274504  608 Tieni Duro Junior Cycling Team
DNSHenry Nelson   Oakland, CA00:00.0 289117  602 Tieni Duro
DNPDylan Drummond   Walnut Creek, CA00:00.0 265912  606 Tieni Duro
DNPClifford Patterson   Clovis, CA00:00.0 293390  613 Central Valley Cycling

Women - Pro/Cat 1/2

 Place Points NameCity, StateTime USAC #BibTeam
1456.92Rebecca Rising   Yosemite, CA00:00.0 197841  58 Sierra Pacific Racing
2518.26Beverly Chaney   Carmel, CA00:00.0 221127  59 Team Roaring Mouse
3Felicia GOMEZ   00:00.0  61 

Women - Cat 3

 Place Points NameCity, StateTime USAC #BibTeam
1437.50Katrina Howard   Fresno, CA00:00.0 231847  131 Vapor Racing
2513.75Christina Yglesias   Cupertino, CA00:00.0 264750  132 Proman Hit Squad
3590.00Kimberley Payne   Campbell, CA00:00.0 51589  130 Team Ohana Sport

Women - Cat 4

 Place Points NameCity, StateTime USAC #BibTeam
1451.52Ellen Sherrill   South Lake Tahoe, CA00:00.0 299535  615 Davis Bike Club Race Team
2471.30Joy Palileo   American Canyon, CA00:00.0 255792  612 Dolce Vita
3491.08Alicia Halpern   Alameda, CA00:00.0 257120  610 Tieni Duro
4510.86Page Robertson   Oakland, CA00:00.0 291028  607 Tieni Duro
5530.64Briana Mommer   Fresno, CA00:00.0 266008  614 Tri Sports Racing
6550.42Angela DeSapio   Sanfrancisco, CA00:00.0 303749  611 Velo Girls
7570.20Ramona Sovereign   Sacramento, CA00:00.0 286346  609 
8Kim WEIXEL   00:00.0  616 
DNSKatherine Hamilton   Fairfax, CA00:00.0 253544  608 unattached

Report missing or incorrect license numbers

Volkswagen
SpySierra NevadaBonk BreakerShimanoUSACDF
UCI USA Cycling is the official governing body for all disciplines of competitive cycling in the United States. The 501c3, membership-based organization aims both to achieve sustained success in international cycling competition and to grow competitive cycling in America while delivering an exceptional customer experience.
View Children's Online Privacy Protection Policy
US Olympic Committee